Terminal Aerodrome Forecast
Issued by NWS

Home | Current Version | Previous Version | Text Only | Print | Product List | Glossary On
Versions: 1 2 3 4 5 6 7 8 9 10 11 12 13 14 15 16 17 18 19 20 21 22 23
652
FTUS44 KMAF 222129 CCB
TAFFST
TAF COR
KFST 222129Z 2221/2318 07011KT P6SM SCT040 BKN250
      TEMPO 2301/2305 VRB25G35KT 4SM TSRA BKN040CB
     FM231400 01014G24KT P6SM BKN020=

USA.gov is the U.S. government's official web portal to all federal, state and local government web resources and services.